Time;durP1;ratioP1;P1;durP2;ratioP2;P2;SDS_P1;SDS_P2;PMS_P1;PMS_P2;Temp;Humidity;BMP_temperature;BMP_pressure;BME280_temperature;BME280_humidity;BME280_pressure;Samples;Min_cycle;Max_cycle;Signal;HPM_P1;HPM_P2
2022/01/04 00:00:08;;;;;;;2.83;1.30;;;9.00;99.90;;;;;;5007280;28;20088;-66
2022/01/04 00:02:34;;;;;;;3.20;0.90;;;9.00;99.90;;;;;;4999779;28;20066;-66
2022/01/04 00:04:59;;;;;;;2.13;1.00;;;9.10;99.90;;;;;;5009264;28;20026;-64
2022/01/04 00:07:25;;;;;;;5.38;0.90;;;9.10;99.90;;;;;;5001885;28;20038;-67
2022/01/04 00:09:52;;;;;;;4.85;0.90;;;9.10;99.90;;;;;;5001747;28;20510;-65
2022/01/04 00:15:04;;;;;;;1.75;0.50;;;9.20;99.90;;;;;;4997741;28;20108;-66
2022/01/04 00:17:30;;;;;;;1.08;0.70;;;9.20;99.90;;;;;;4991440;28;20049;-65
2022/01/04 00:19:55;;;;;;;1.75;1.00;;;9.30;99.90;;;;;;4992387;28;20383;-64
2022/01/04 00:22:21;;;;;;;1.58;0.60;;;9.30;99.90;;;;;;5003937;28;20084;-64
2022/01/04 00:24:47;;;;;;;2.55;0.80;;;9.30;99.90;;;;;;5004139;28;20503;-65
2022/01/04 00:27:12;;;;;;;3.60;0.90;;;9.40;99.90;;;;;;4999324;28;20041;-65
2022/01/04 00:29:38;;;;;;;1.20;0.70;;;9.40;99.90;;;;;;4990817;28;20052;-64
2022/01/04 00:32:04;;;;;;;0.95;0.57;;;9.40;99.90;;;;;;5004625;28;20026;-63
2022/01/04 00:34:30;;;;;;;2.55;0.90;;;9.40;99.90;;;;;;4995666;28;20118;-64
2022/01/04 00:36:56;;;;;;;2.03;0.70;;;9.50;99.90;;;;;;5008250;28;20037;-64
2022/01/04 00:39:21;;;;;;;1.50;0.70;;;9.50;99.90;;;;;;5010154;28;20030;-64
2022/01/04 00:41:47;;;;;;;0.98;0.60;;;9.50;99.90;;;;;;5008978;28;20086;-65
2022/01/04 00:44:13;;;;;;;1.90;0.73;;;9.50;99.90;;;;;;5010572;28;20033;-66
2022/01/04 00:46:39;;;;;;;1.85;0.68;;;9.50;99.90;;;;;;4995849;28;20085;-65
2022/01/04 00:49:11;;;;;;;2.50;0.90;;;9.50;99.90;;;;;;4998885;28;20446;-64
2022/01/04 00:51:41;;;;;;;2.20;0.70;;;9.50;99.90;;;;;;5003600;28;20497;-63
2022/01/04 00:54:08;;;;;;;3.55;1.30;;;9.60;99.90;;;;;;4992240;28;20030;-65
2022/01/04 00:56:35;;;;;;;3.55;0.90;;;9.60;99.90;;;;;;4997392;28;20371;-63
2022/01/04 00:59:00;;;;;;;1.48;0.70;;;9.60;99.90;;;;;;5001716;28;20022;-64
2022/01/04 01:01:26;;;;;;;0.60;0.60;;;9.60;99.90;;;;;;5008536;28;20033;-62
2022/01/04 01:03:52;;;;;;;1.08;0.70;;;9.60;99.90;;;;;;5018073;28;20549;-64
2022/01/04 01:06:18;;;;;;;1.17;0.70;;;9.60;99.90;;;;;;5007366;28;20018;-64
2022/01/04 01:08:44;;;;;;;0.73;0.68;;;9.60;99.90;;;;;;5007576;28;20068;-65
2022/01/04 01:11:10;;;;;;;1.67;0.68;;;9.60;99.90;;;;;;5008281;28;20026;-66
2022/01/04 01:13:37;;;;;;;1.48;0.60;;;9.60;99.90;;;;;;5009755;28;20137;-66
2022/01/04 01:16:04;;;;;;;0.88;0.70;;;9.60;99.90;;;;;;5002785;28;20372;-65
2022/01/04 01:18:29;;;;;;;0.80;0.73;;;9.60;99.90;;;;;;4998361;28;20036;-64
2022/01/04 01:20:55;;;;;;;1.08;0.70;;;9.60;99.90;;;;;;5003604;28;20117;-65
2022/01/04 01:23:22;;;;;;;1.08;0.70;;;9.60;99.90;;;;;;4994971;28;20117;-65
2022/01/04 01:25:48;;;;;;;3.72;0.88;;;9.70;99.90;;;;;;5000978;28;20026;-65
2022/01/04 01:28:14;;;;;;;1.13;0.60;;;9.60;99.90;;;;;;4989362;28;20034;-65
2022/01/04 01:30:42;;;;;;;1.95;0.75;;;9.70;99.90;;;;;;4990323;28;20370;-65
2022/01/04 01:33:09;;;;;;;0.98;0.60;;;9.70;99.90;;;;;;5001575;28;20022;-64
2022/01/04 01:35:38;;;;;;;2.83;1.10;;;9.60;99.90;;;;;;4997272;28;20026;-65
2022/01/04 01:38:05;;;;;;;2.53;0.80;;;9.60;99.90;;;;;;5008526;28;20022;-65
2022/01/04 01:40:32;;;;;;;1.38;0.75;;;9.70;99.90;;;;;;5009469;28;20494;-64
2022/01/04 01:42:58;;;;;;;1.58;0.80;;;9.60;99.90;;;;;;5003920;28;20030;-65
2022/01/04 01:45:24;;;;;;;1.90;0.80;;;9.70;99.90;;;;;;5009900;28;20038;-65
2022/01/04 01:47:51;;;;;;;0.85;0.77;;;9.70;99.90;;;;;;4990919;28;20026;-63
2022/01/04 01:50:18;;;;;;;2.42;0.90;;;9.70;99.90;;;;;;4996500;28;20045;-66
2022/01/04 01:52:46;;;;;;;0.70;0.70;;;9.70;99.90;;;;;;5025702;28;20033;-64
2022/01/04 01:55:14;;;;;;;2.00;0.70;;;9.70;99.90;;;;;;5017068;28;20493;-64
2022/01/04 01:57:39;;;;;;;1.65;0.80;;;9.70;99.90;;;;;;4998328;28;20384;-65
2022/01/04 02:00:11;;;;;;;0.82;0.70;;;9.70;99.90;;;;;;5009234;28;20252;-65
2022/01/04 02:02:36;;;;;;;1.25;0.90;;;9.70;99.90;;;;;;4995596;28;20026;-64
2022/01/04 02:05:03;;;;;;;0.80;0.80;;;9.70;99.90;;;;;;5009451;28;20412;-65
2022/01/04 02:07:30;;;;;;;3.08;0.85;;;9.80;99.90;;;;;;5006345;28;20085;-65
2022/01/04 02:10:05;;;;;;;1.65;0.75;;;9.70;99.90;;;;;;5003791;28;20479;-65
2022/01/04 02:12:41;;;;;;;0.65;0.65;;;9.80;99.90;;;;;;5005474;28;20515;-67
2022/01/04 02:15:10;;;;;;;2.85;0.70;;;9.70;99.90;;;;;;4991315;28;20137;-64
2022/01/04 02:17:36;;;;;;;1.02;0.80;;;9.70;99.90;;;;;;5004877;28;20084;-65
2022/01/04 02:20:04;;;;;;;0.57;0.57;;;9.80;99.90;;;;;;5008869;28;20026;-65
2022/01/04 02:22:31;;;;;;;3.65;0.82;;;9.70;99.90;;;;;;5000322;28;20490;-66
2022/01/04 02:24:58;;;;;;;0.60;0.60;;;9.70;99.90;;;;;;4994661;28;20046;-65
2022/01/04 02:27:24;;;;;;;0.80;0.70;;;9.70;99.90;;;;;;4992764;28;20491;-66
2022/01/04 02:29:49;;;;;;;0.63;0.63;;;9.80;99.90;;;;;;4991685;28;20046;-64
2022/01/04 02:32:15;;;;;;;2.33;0.80;;;9.70;99.90;;;;;;4991016;28;20038;-63
2022/01/04 02:34:47;;;;;;;1.70;0.85;;;9.80;99.90;;;;;;4989788;28;20125;-65
2022/01/04 02:37:12;;;;;;;1.02;0.88;;;9.80;99.90;;;;;;5019796;28;20514;-65
2022/01/04 02:39:38;;;;;;;1.83;0.77;;;9.80;99.90;;;;;;5005984;28;20122;-65
2022/01/04 02:42:05;;;;;;;2.35;0.80;;;9.70;99.90;;;;;;5004381;28;20067;-66
2022/01/04 02:44:31;;;;;;;1.83;0.68;;;9.80;99.90;;;;;;5002231;28;20045;-63
2022/01/04 02:46:57;;;;;;;2.05;0.65;;;9.80;99.90;;;;;;5009444;28;20457;-67
2022/01/04 02:49:23;;;;;;;1.90;0.70;;;9.70;99.90;;;;;;5011821;28;20034;-64
2022/01/04 02:51:49;;;;;;;1.05;0.75;;;9.80;99.90;;;;;;5005286;28;20023;-65
2022/01/04 02:54:14;;;;;;;0.70;0.70;;;9.80;99.90;;;;;;5000535;28;20037;-65
2022/01/04 02:56:40;;;;;;;1.88;0.90;;;9.80;99.90;;;;;;5017118;28;20485;-65
2022/01/04 02:59:06;;;;;;;4.13;1.00;;;9.80;99.90;;;;;;5010804;28;20037;-65
2022/01/04 03:01:31;;;;;;;0.82;0.60;;;9.80;99.90;;;;;;5004755;28;20033;-65
2022/01/04 03:03:57;;;;;;;0.75;0.68;;;9.80;99.90;;;;;;5011775;28;20427;-65
2022/01/04 03:06:23;;;;;;;2.17;0.80;;;9.80;99.90;;;;;;5005697;28;20032;-65
2022/01/04 03:08:49;;;;;;;1.67;0.80;;;9.80;99.90;;;;;;5010640;28;20486;-66
2022/01/04 03:11:15;;;;;;;1.17;0.93;;;9.80;99.90;;;;;;5003142;28;20045;-66
2022/01/04 03:13:40;;;;;;;1.05;0.85;;;9.80;99.90;;;;;;5028333;28;20132;-64
2022/01/04 03:16:06;;;;;;;1.10;1.00;;;9.80;99.90;;;;;;5020774;28;20030;-65
2022/01/04 03:18:32;;;;;;;1.52;1.00;;;9.80;99.90;;;;;;5025639;23;20065;-66
2022/01/04 03:20:57;;;;;;;1.67;0.80;;;9.80;99.90;;;;;;5031383;28;20062;-65
2022/01/04 03:23:23;;;;;;;0.98;0.88;;;9.80;99.90;;;;;;5034112;28;20438;-66
2022/01/04 03:25:49;;;;;;;0.93;0.80;;;9.80;99.90;;;;;;5031314;28;20121;-66
2022/01/04 03:28:18;;;;;;;1.92;1.02;;;9.80;99.90;;;;;;5030632;28;20129;-66
2022/01/04 03:30:43;;;;;;;0.98;0.98;;;9.80;99.90;;;;;;5030846;28;20040;-65
2022/01/04 03:33:09;;;;;;;1.05;0.93;;;9.90;99.90;;;;;;5030798;28;20108;-66
2022/01/04 03:35:35;;;;;;;3.42;1.10;;;9.80;99.90;;;;;;5031080;28;20028;-65
2022/01/04 03:38:01;;;;;;;2.30;1.17;;;9.80;99.90;;;;;;5030469;28;20153;-66
2022/01/04 03:40:26;;;;;;;2.67;0.98;;;9.80;99.90;;;;;;5030772;28;20033;-66
2022/01/04 03:42:52;;;;;;;2.20;0.90;;;9.80;99.90;;;;;;5031005;28;20021;-65
2022/01/04 03:45:17;;;;;;;1.58;0.95;;;9.80;99.90;;;;;;5030853;28;20426;-66
2022/01/04 03:47:43;;;;;;;2.90;1.40;;;9.80;99.90;;;;;;5030276;28;20033;-66
2022/01/04 03:50:09;;;;;;;1.48;1.08;;;9.80;99.90;;;;;;5011341;28;20026;-65
2022/01/04 03:52:37;;;;;;;1.52;1.17;;;9.80;99.90;;;;;;5041998;28;20025;-65
2022/01/04 03:55:06;;;;;;;3.78;1.10;;;9.80;99.90;;;;;;5030653;28;20029;-66
2022/01/04 03:57:32;;;;;;;3.70;1.10;;;9.80;99.90;;;;;;5029933;28;20437;-65
2022/01/04 03:59:58;;;;;;;1.67;1.30;;;9.80;99.90;;;;;;5028431;28;20037;-66
2022/01/04 04:02:24;;;;;;;1.48;1.30;;;9.80;99.90;;;;;;5030394;28;20038;-66
2022/01/04 04:04:50;;;;;;;1.13;1.00;;;9.80;99.90;;;;;;5030404;28;20033;-66
2022/01/04 04:07:15;;;;;;;2.45;1.15;;;9.80;99.90;;;;;;5030567;28;20624;-65
2022/01/04 04:09:41;;;;;;;1.35;1.20;;;9.80;99.90;;;;;;5029545;28;20048;-65
2022/01/04 04:12:07;;;;;;;2.30;1.10;;;9.80;99.90;;;;;;5029863;28;20124;-66
2022/01/04 04:14:33;;;;;;;1.90;1.27;;;9.80;99.90;;;;;;5029797;28;20022;-66
2022/01/04 04:16:59;;;;;;;2.08;1.00;;;9.80;99.90;;;;;;5030087;28;20397;-65
2022/01/04 04:19:24;;;;;;;2.80;1.13;;;9.70;99.90;;;;;;5029664;28;20338;-66
2022/01/04 04:21:50;;;;;;;1.33;1.23;;;9.80;99.90;;;;;;5034483;28;20141;-65
2022/01/04 04:24:16;;;;;;;1.10;1.10;;;9.70;99.90;;;;;;5026237;28;20048;-66
2022/01/04 04:26:41;;;;;;;1.33;1.23;;;9.70;99.90;;;;;;5030210;28;20037;-65
2022/01/04 04:29:09;;;;;;;1.67;1.48;;;9.80;99.90;;;;;;5029004;28;20040;-66
2022/01/04 04:31:34;;;;;;;1.17;1.08;;;9.80;99.90;;;;;;5029881;28;20032;-66
2022/01/04 04:34:00;;;;;;;2.38;1.20;;;9.80;99.90;;;;;;5029430;28;20045;-66
2022/01/04 04:36:27;;;;;;;1.98;1.13;;;9.70;99.90;;;;;;5017140;28;20030;-66
2022/01/04 04:38:53;;;;;;;1.02;1.00;;;9.70;99.90;;;;;;5029361;28;20025;-66
2022/01/04 04:41:18;;;;;;;1.85;1.10;;;9.70;99.90;;;;;;5030027;28;20024;-65
2022/01/04 04:43:45;;;;;;;1.15;1.00;;;9.80;99.90;;;;;;5039603;28;20021;-66
2022/01/04 04:46:11;;;;;;;1.10;1.10;;;9.70;99.90;;;;;;5029689;28;20121;-66
2022/01/04 04:48:37;;;;;;;1.38;1.10;;;9.70;99.90;;;;;;5013204;28;20620;-66
2022/01/04 04:51:03;;;;;;;1.20;1.10;;;9.70;99.90;;;;;;5029669;28;20026;-66
2022/01/04 04:53:28;;;;;;;2.75;1.20;;;9.70;99.90;;;;;;5045879;28;20021;-65
2022/01/04 04:55:54;;;;;;;3.05;1.13;;;9.70;99.90;;;;;;5030640;28;20393;-66
2022/01/04 04:58:20;;;;;;;3.55;1.13;;;9.70;99.90;;;;;;5045593;28;20022;-65
2022/01/04 05:00:45;;;;;;;1.20;1.10;;;9.70;99.90;;;;;;5029025;28;20033;-66
2022/01/04 05:03:11;;;;;;;1.25;1.15;;;9.70;99.90;;;;;;5029042;28;20369;-66
2022/01/04 05:05:36;;;;;;;3.33;1.38;;;9.70;99.90;;;;;;5028967;28;20036;-65
2022/01/04 05:08:02;;;;;;;2.38;1.10;;;9.70;99.90;;;;;;5021364;28;20033;-65
2022/01/04 05:10:28;;;;;;;2.20;0.90;;;9.70;99.90;;;;;;5025966;28;20041;-66
2022/01/04 05:12:53;;;;;;;1.00;1.00;;;9.70;99.90;;;;;;5029003;28;20036;-66
2022/01/04 05:15:19;;;;;;;2.20;1.13;;;9.70;99.90;;;;;;5029647;28;20696;-66
2022/01/04 05:17:45;;;;;;;1.65;1.10;;;9.70;99.90;;;;;;5027977;28;20080;-66
2022/01/04 05:20:11;;;;;;;2.83;1.10;;;9.70;99.90;;;;;;5028964;28;20037;-66
2022/01/04 05:22:37;;;;;;;1.98;0.98;;;9.70;99.90;;;;;;5028881;28;20029;-66
2022/01/04 05:25:03;;;;;;;1.65;1.20;;;9.60;99.90;;;;;;5029096;28;20026;-66
2022/01/04 05:27:28;;;;;;;2.03;1.08;;;9.60;99.90;;;;;;5028944;28;20077;-66
2022/01/04 05:29:54;;;;;;;1.88;1.05;;;9.60;99.90;;;;;;5028995;28;20040;-66
2022/01/04 05:32:20;;;;;;;1.25;1.13;;;9.60;99.90;;;;;;5028959;28;20049;-66
2022/01/04 05:34:45;;;;;;;2.33;1.20;;;9.60;99.90;;;;;;5029185;28;20128;-66
2022/01/04 05:37:11;;;;;;;2.20;0.95;;;9.60;99.90;;;;;;5028424;28;20030;-66
2022/01/04 05:39:37;;;;;;;1.92;1.15;;;9.60;99.90;;;;;;5028796;28;20026;-66
2022/01/04 05:42:03;;;;;;;1.25;1.20;;;9.60;99.90;;;;;;5029271;28;20041;-66
2022/01/04 05:44:28;;;;;;;1.45;1.00;;;9.60;99.90;;;;;;5028689;28;20029;-66
2022/01/04 05:46:54;;;;;;;1.63;0.98;;;9.60;99.90;;;;;;5028591;28;20543;-65
2022/01/04 05:49:20;;;;;;;3.60;1.30;;;9.60;99.90;;;;;;5028394;28;20373;-66
2022/01/04 05:51:46;;;;;;;1.40;1.08;;;9.60;99.90;;;;;;5028238;28;20430;-66
2022/01/04 05:54:11;;;;;;;1.20;1.10;;;9.60;99.90;;;;;;5028463;28;20029;-66
2022/01/04 05:56:37;;;;;;;1.70;1.00;;;9.60;99.90;;;;;;5025516;28;20054;-66
2022/01/04 05:59:03;;;;;;;2.70;1.10;;;9.60;99.90;;;;;;5027919;28;20026;-66
2022/01/04 06:01:28;;;;;;;2.90;1.20;;;9.60;99.90;;;;;;5028755;28;20099;-66
2022/01/04 06:03:54;;;;;;;1.95;1.40;;;9.60;99.90;;;;;;5028311;28;20033;-66
2022/01/04 06:06:20;;;;;;;1.13;1.00;;;9.60;99.90;;;;;;5027645;28;20031;-66
2022/01/04 06:08:46;;;;;;;5.27;1.10;;;9.60;99.90;;;;;;5027717;28;20033;-66
2022/01/04 06:12:00;;;;;;;1.95;1.25;;;9.60;99.90;;;;;;5028696;28;20066;-66
2022/01/04 06:16:42;;;;;;;1.50;1.40;;;9.60;99.90;;;;;;5020086;28;20091;-66
2022/01/04 06:19:07;;;;;;;2.35;1.00;;;9.60;99.90;;;;;;5031422;28;20385;-66
2022/01/04 06:21:33;;;;;;;2.53;1.08;;;9.60;99.90;;;;;;5032260;28;20057;-66
2022/01/04 06:23:58;;;;;;;1.60;1.00;;;9.60;99.90;;;;;;5029958;28;20037;-66
2022/01/04 06:26:24;;;;;;;1.27;1.17;;;9.60;99.90;;;;;;5027780;28;20032;-66
2022/01/04 06:28:50;;;;;;;1.65;1.00;;;9.60;99.90;;;;;;5024416;28;20524;-66
2022/01/04 06:31:16;;;;;;;1.33;1.10;;;9.60;99.90;;;;;;5031885;28;20029;-66
2022/01/04 06:33:43;;;;;;;2.67;1.23;;;9.60;99.90;;;;;;5031844;28;20124;-66
2022/01/04 06:36:08;;;;;;;1.88;1.13;;;9.60;99.90;;;;;;5031998;28;20022;-66
2022/01/04 06:38:34;;;;;;;3.22;2.35;;;9.60;99.90;;;;;;5031567;28;20029;-66
2022/01/04 06:41:00;;;;;;;1.38;1.10;;;9.70;99.90;;;;;;5032058;28;20125;-66
2022/01/04 06:43:26;;;;;;;1.20;1.10;;;9.70;99.90;;;;;;5031918;28;20037;-66
2022/01/04 06:45:51;;;;;;;1.70;1.15;;;9.70;99.90;;;;;;5031527;28;20026;-66
2022/01/04 06:48:17;;;;;;;1.83;1.10;;;9.70;99.90;;;;;;5031684;28;20029;-66
2022/01/04 06:50:42;;;;;;;1.25;0.90;;;9.70;99.90;;;;;;5032069;28;20025;-66
2022/01/04 06:53:08;;;;;;;2.47;1.20;;;9.70;99.90;;;;;;5031694;28;20075;-66
2022/01/04 06:55:34;;;;;;;1.40;1.30;;;9.70;99.90;;;;;;5032759;28;20056;-66
2022/01/04 06:58:00;;;;;;;2.22;1.30;;;9.70;99.90;;;;;;5032435;28;20022;-66
2022/01/04 07:00:25;;;;;;;2.95;0.90;;;9.80;99.90;;;;;;5047258;28;20033;-66
2022/01/04 07:02:51;;;;;;;2.25;1.20;;;9.70;99.90;;;;;;5031639;28;20167;-66
2022/01/04 07:05:17;;;;;;;2.65;1.23;;;9.70;99.90;;;;;;5032038;28;20090;-66
2022/01/04 07:07:43;;;;;;;1.13;1.00;;;9.80;99.90;;;;;;5032109;28;20657;-66
2022/01/04 07:10:08;;;;;;;0.93;0.93;;;9.80;99.90;;;;;;5032689;28;20060;-66
2022/01/04 07:12:34;;;;;;;0.95;0.95;;;9.80;99.90;;;;;;5032413;28;20057;-66
2022/01/04 07:15:00;;;;;;;1.55;1.10;;;9.80;99.90;;;;;;5032752;28;20025;-66
2022/01/04 07:17:26;;;;;;;3.75;1.50;;;9.80;99.90;;;;;;5032064;28;20030;-66
2022/01/04 07:19:51;;;;;;;2.03;1.20;;;9.80;99.90;;;;;;5032009;28;20397;-66
2022/01/04 07:22:17;;;;;;;24.15;16.17;;;9.80;99.90;;;;;;5032057;28;20036;-67
2022/01/04 07:24:43;;;;;;;1.67;1.20;;;9.80;99.90;;;;;;5031838;28;20319;-67
2022/01/04 07:27:09;;;;;;;1.42;1.10;;;9.80;99.90;;;;;;5031342;28;20060;-67
2022/01/04 07:29:35;;;;;;;3.75;1.20;;;9.80;99.90;;;;;;5031696;28;20124;-66
2022/01/04 07:32:00;;;;;;;1.17;1.00;;;9.80;99.90;;;;;;5032297;28;20392;-65
2022/01/04 07:34:26;;;;;;;1.10;1.00;;;9.80;99.90;;;;;;5031786;28;20029;-66
2022/01/04 07:36:52;;;;;;;1.15;1.08;;;9.80;99.90;;;;;;5032454;28;20032;-66
2022/01/04 07:39:17;;;;;;;1.10;1.00;;;9.80;99.90;;;;;;5031720;28;20061;-65
2022/01/04 07:41:43;;;;;;;0.90;0.90;;;9.90;99.90;;;;;;5031990;28;20026;-66
2022/01/04 07:44:09;;;;;;;2.45;1.20;;;9.90;99.90;;;;;;5031933;28;20021;-66
2022/01/04 07:46:34;;;;;;;1.90;1.10;;;9.90;99.90;;;;;;5031095;28;20056;-66
2022/01/04 07:49:00;;;;;;;1.15;1.10;;;9.90;99.90;;;;;;5031555;28;20389;-66
2022/01/04 07:51:27;;;;;;;2.13;1.00;;;9.90;99.90;;;;;;5031933;28;20497;-66
2022/01/04 07:53:52;;;;;;;1.00;1.00;;;9.90;99.90;;;;;;5030649;28;20160;-66
2022/01/04 07:56:18;;;;;;;1.48;1.38;;;10.00;99.90;;;;;;5031568;28;20040;-66
2022/01/04 07:58:44;;;;;;;0.98;0.95;;;9.90;99.90;;;;;;5030193;28;20493;-66
2022/01/04 08:01:10;;;;;;;3.05;1.17;;;10.00;99.90;;;;;;5032098;28;20029;-66
2022/01/04 08:03:35;;;;;;;1.30;1.20;;;10.00;99.90;;;;;;5028694;28;20030;-66
2022/01/04 08:06:01;;;;;;;2.30;1.20;;;10.00;99.90;;;;;;5030045;28;20537;-66
2022/01/04 08:08:27;;;;;;;2.70;2.15;;;10.00;99.90;;;;;;5028831;28;20033;-66
2022/01/04 08:10:52;;;;;;;1.33;1.15;;;10.00;99.90;;;;;;5028747;28;20029;-66
2022/01/04 08:13:18;;;;;;;4.53;1.30;;;10.00;99.90;;;;;;5029762;28;20078;-66
2022/01/04 08:15:44;;;;;;;1.27;0.90;;;10.00;99.90;;;;;;5018608;28;20073;-66
2022/01/04 08:18:10;;;;;;;0.82;0.80;;;10.00;99.90;;;;;;5019872;28;20419;-67
2022/01/04 08:20:36;;;;;;;1.00;1.00;;;10.10;99.90;;;;;;5031777;28;20482;-67
2022/01/04 08:23:02;;;;;;;0.95;0.93;;;10.10;99.90;;;;;;5031269;28;20052;-67
2022/01/04 08:25:28;;;;;;;0.85;0.85;;;10.10;99.90;;;;;;5031730;28;20151;-67
2022/01/04 08:27:54;;;;;;;1.42;0.88;;;10.10;99.90;;;;;;5029888;28;20527;-67
2022/01/04 08:30:20;;;;;;;1.77;1.30;;;10.10;99.90;;;;;;5031189;28;20036;-66
2022/01/04 08:32:46;;;;;;;1.10;1.00;;;10.10;99.90;;;;;;5030528;28;20030;-67
2022/01/04 08:35:12;;;;;;;0.80;0.80;;;10.20;99.90;;;;;;5031039;28;20083;-67
2022/01/04 08:37:39;;;;;;;1.00;0.90;;;10.20;99.90;;;;;;5029730;28;20021;-67
2022/01/04 08:40:06;;;;;;;0.98;0.98;;;10.20;99.90;;;;;;5031690;28;20386;-67
2022/01/04 08:42:34;;;;;;;2.15;1.02;;;10.20;99.90;;;;;;5031240;28;20063;-67
2022/01/04 08:45:00;;;;;;;1.00;0.90;;;10.20;99.90;;;;;;5031113;28;20375;-66
2022/01/04 08:47:26;;;;;;;1.20;1.00;;;10.20;99.90;;;;;;5030499;28;20116;-66
2022/01/04 08:49:52;;;;;;;1.10;1.00;;;10.20;99.90;;;;;;5031026;28;20021;-67
2022/01/04 08:52:17;;;;;;;1.92;1.17;;;10.30;99.90;;;;;;5031183;28;20071;-66
2022/01/04 08:54:43;;;;;;;1.75;1.10;;;10.30;99.90;;;;;;5029118;28;20490;-66
2022/01/04 08:57:09;;;;;;;2.13;1.80;;;10.30;99.90;;;;;;5041951;28;20389;-66
2022/01/04 08:59:35;;;;;;;1.05;0.93;;;10.30;99.90;;;;;;5034347;28;20041;-67
2022/01/04 09:02:01;;;;;;;1.88;0.95;;;10.30;99.90;;;;;;5031090;28;20416;-67
2022/01/04 09:04:27;;;;;;;0.95;0.85;;;10.30;99.90;;;;;;5030894;28;20080;-67
2022/01/04 09:06:53;;;;;;;1.25;1.15;;;10.40;99.90;;;;;;5030916;28;20030;-66
2022/01/04 09:09:19;;;;;;;1.27;1.10;;;10.40;99.90;;;;;;5029950;28;20029;-67
2022/01/04 09:11:45;;;;;;;3.25;0.90;;;10.40;99.90;;;;;;5031033;28;20366;-67
2022/01/04 09:14:19;;;;;;;1.75;0.90;;;10.40;99.90;;;;;;5030333;28;20430;-66
2022/01/04 09:21:56;;;;;;;1.00;0.88;;;10.50;99.90;;;;;;4984130;28;20395;-64
2022/01/04 09:24:22;;;;;;;1.10;1.00;;;10.50;99.90;;;;;;4990981;28;20029;-65
2022/01/04 09:26:48;;;;;;;1.15;0.93;;;10.50;99.90;;;;;;4991001;28;20471;-65
2022/01/04 09:29:17;;;;;;;2.05;0.80;;;10.50;99.90;;;;;;4989005;28;20034;-64
2022/01/04 09:31:43;;;;;;;1.15;0.90;;;10.60;99.90;;;;;;4990988;28;20451;-65
2022/01/04 09:34:09;;;;;;;2.08;1.10;;;10.60;99.90;;;;;;4990565;28;20097;-64
2022/01/04 09:36:38;;;;;;;1.52;0.82;;;10.60;99.90;;;;;;4990095;28;20072;-64
2022/01/04 09:39:13;;;;;;;2.28;1.30;;;10.60;99.90;;;;;;4990421;28;20109;-64
2022/01/04 09:41:40;;;;;;;0.70;0.70;;;10.70;99.90;;;;;;4990795;28;20026;-66
2022/01/04 09:44:06;;;;;;;1.10;0.95;;;10.70;99.90;;;;;;4990369;28;20362;-65
2022/01/04 09:46:33;;;;;;;0.98;0.90;;;10.70;99.90;;;;;;4990942;28;20023;-64
2022/01/04 09:48:59;;;;;;;1.23;1.05;;;10.70;99.90;;;;;;4993074;28;20117;-65
2022/01/04 09:51:26;;;;;;;0.90;0.90;;;10.70;99.90;;;;;;4996138;28;20029;-65
2022/01/04 09:53:53;;;;;;;1.02;1.02;;;10.70;99.90;;;;;;4994674;28;20445;-66
2022/01/04 09:56:19;;;;;;;2.03;1.00;;;10.70;99.90;;;;;;4994643;28;20616;-64
2022/01/04 09:58:45;;;;;;;1.42;1.05;;;10.70;99.90;;;;;;4993678;28;20030;-64
2022/01/04 10:01:32;;;;;;;1.00;0.90;;;10.80;99.90;;;;;;4994830;28;20034;-64
2022/01/04 10:03:58;;;;;;;0.90;0.80;;;10.80;99.90;;;;;;4994669;28;20031;-66
2022/01/04 10:06:25;;;;;;;1.33;0.95;;;10.80;99.90;;;;;;4991737;28;20019;-67
2022/01/04 10:09:00;;;;;;;1.52;1.02;;;10.80;99.90;;;;;;4991989;28;20038;-64
2022/01/04 10:11:44;;;;;;;1.42;0.88;;;10.80;99.90;;;;;;4993955;28;20049;-64
2022/01/04 10:14:29;;;;;;;0.95;0.80;;;10.90;99.90;;;;;;4995668;28;20014;-64
2022/01/04 10:17:00;;;;;;;1.83;1.02;;;10.90;99.90;;;;;;4992951;28;20034;-64
2022/01/04 10:19:32;;;;;;;1.63;1.17;;;10.90;99.90;;;;;;4989135;28;20037;-66
2022/01/04 10:22:15;;;;;;;1.50;0.80;;;10.90;99.90;;;;;;4995193;28;20061;-64
2022/01/04 10:24:43;;;;;;;2.08;0.90;;;10.90;99.90;;;;;;4997185;28;20403;-65
2022/01/04 10:27:32;;;;;;;2.55;0.85;;;10.90;99.90;;;;;;4996368;28;20026;-65
2022/01/04 10:30:17;;;;;;;3.00;2.45;;;11.00;99.90;;;;;;4996389;28;20034;-64
2022/01/04 10:33:01;;;;;;;1.02;0.93;;;11.00;99.90;;;;;;4997052;28;20061;-64
2022/01/04 10:35:32;;;;;;;2.78;1.00;;;11.00;99.90;;;;;;4997371;28;20022;-65
2022/01/04 10:38:19;;;;;;;0.87;0.70;;;11.00;99.90;;;;;;4996605;28;20030;-63
2022/01/04 10:41:25;;;;;;;0.95;0.90;;;11.00;99.90;;;;;;4996557;28;20034;-64
2022/01/04 10:43:58;;;;;;;2.10;0.98;;;11.00;99.90;;;;;;4996822;28;20072;-67
2022/01/04 10:46:32;;;;;;;0.90;0.90;;;11.00;99.90;;;;;;4997010;28;20076;-64
2022/01/04 10:48:58;;;;;;;1.73;1.00;;;11.10;99.90;;;;;;4995482;28;20348;-63
2022/01/04 10:51:26;;;;;;;1.65;1.15;;;11.00;99.90;;;;;;4995946;28;20569;-66
2022/01/04 10:54:00;;;;;;;1.52;1.00;;;11.10;99.90;;;;;;4996689;28;20509;-66
2022/01/04 10:56:33;;;;;;;1.10;1.00;;;11.10;99.90;;;;;;4996593;28;20025;-64
2022/01/04 10:59:02;;;;;;;0.82;0.82;;;11.10;99.90;;;;;;4995617;28;20377;-64
2022/01/04 11:01:30;;;;;;;1.35;1.02;;;11.10;99.90;;;;;;4995486;28;20034;-67
2022/01/04 11:04:01;;;;;;;1.58;0.93;;;11.10;99.90;;;;;;4996833;28;20053;-66
2022/01/04 11:06:35;;;;;;;2.17;0.95;;;11.10;99.90;;;;;;4996263;28;20490;-67
2022/01/04 11:09:02;;;;;;;1.60;1.02;;;11.10;99.90;;;;;;4995747;28;20565;-66
2022/01/04 11:11:28;;;;;;;2.55;1.00;;;11.10;99.90;;;;;;4996216;28;20030;-65
2022/01/04 11:13:54;;;;;;;1.88;1.00;;;11.10;99.90;;;;;;4995881;28;20034;-65
2022/01/04 11:16:23;;;;;;;1.70;0.70;;;11.20;99.90;;;;;;5002360;28;20022;-66
2022/01/04 11:18:52;;;;;;;1.48;1.38;;;11.10;99.90;;;;;;4997180;28;20030;-66
2022/01/04 11:21:31;;;;;;;1.98;0.90;;;11.10;99.90;;;;;;5010548;28;20139;-66
2022/01/04 11:23:59;;;;;;;3.08;0.98;;;11.10;99.90;;;;;;4996348;28;20164;-66
2022/01/04 11:26:26;;;;;;;0.90;0.88;;;11.20;99.90;;;;;;4996068;28;20033;-66
2022/01/04 11:28:54;;;;;;;1.17;0.90;;;11.10;99.90;;;;;;4991582;28;20481;-67
2022/01/04 11:31:45;;;;;;;3.50;1.10;;;11.20;99.90;;;;;;4992670;28;20504;-65
2022/01/04 11:34:24;;;;;;;1.15;1.02;;;11.20;99.90;;;;;;4995640;28;20053;-67
2022/01/04 11:36:51;;;;;;;1.60;1.50;;;11.20;99.90;;;;;;4995777;28;20030;-66
2022/01/04 11:39:28;;;;;;;3.30;1.20;;;11.20;99.90;;;;;;4994659;28;20030;-67
2022/01/04 11:41:55;;;;;;;2.22;1.10;;;11.20;99.90;;;;;;4996053;28;20021;-65
2022/01/04 11:44:23;;;;;;;4.32;1.60;;;11.20;99.90;;;;;;4995389;28;20041;-66
2022/01/04 11:47:18;;;;;;;2.53;1.88;;;11.20;99.90;;;;;;4995571;28;20169;-65
2022/01/04 11:50:03;;;;;;;1.80;1.40;;;11.20;99.90;;;;;;4995178;28;20034;-66
2022/01/04 11:52:42;;;;;;;2.25;1.35;;;11.20;99.90;;;;;;4995214;28;20022;-64
2022/01/04 11:55:21;;;;;;;2.90;1.70;;;11.20;99.90;;;;;;4985634;28;20478;-65
2022/01/04 11:57:52;;;;;;;1.92;1.05;;;11.20;99.90;;;;;;4994697;28;20040;-66
2022/01/04 12:00:26;;;;;;;1.13;1.02;;;11.20;99.90;;;;;;4991999;28;20026;-67
2022/01/04 12:03:14;;;;;;;4.05;1.02;;;11.20;99.90;;;;;;4995418;28;20022;-67
2022/01/04 12:06:02;;;;;;;1.52;1.00;;;11.20;99.90;;;;;;4994757;28;20037;-67
2022/01/04 12:08:36;;;;;;;2.47;1.13;;;11.20;99.90;;;;;;4994628;28;20025;-66
2022/01/04 12:11:03;;;;;;;1.98;1.40;;;11.20;99.90;;;;;;4994136;28;20037;-66
2022/01/04 12:13:49;;;;;;;1.35;1.00;;;11.20;99.90;;;;;;4994724;28;20084;-66
2022/01/04 12:16:15;;;;;;;1.85;1.10;;;11.20;99.90;;;;;;4995123;28;20030;-67
2022/01/04 12:18:40;;;;;;;1.80;1.10;;;11.20;99.90;;;;;;4994342;28;20425;-66
2022/01/04 12:21:15;;;;;;;2.65;1.20;;;11.20;99.90;;;;;;4995479;28;20026;-66
2022/01/04 12:23:44;;;;;;;1.48;1.00;;;11.20;99.90;;;;;;4997446;28;20176;-66
2022/01/04 12:26:14;;;;;;;1.70;0.90;;;11.20;99.90;;;;;;4994758;28;20026;-67
2022/01/04 12:28:45;;;;;;;2.67;1.40;;;11.10;99.90;;;;;;4994222;28;20046;-66
2022/01/04 12:31:17;;;;;;;1.25;1.13;;;11.20;99.90;;;;;;4994769;28;20394;-66
2022/01/04 12:33:44;;;;;;;3.80;1.30;;;11.20;99.90;;;;;;4994643;28;20060;-64
2022/01/04 12:36:25;;;;;;;1.77;1.20;;;11.20;99.90;;;;;;4994963;28;20026;-67
2022/01/04 12:38:51;;;;;;;1.42;1.15;;;11.20;99.90;;;;;;4993655;28;20029;-66
2022/01/04 12:41:18;;;;;;;2.45;1.60;;;11.20;99.90;;;;;;4994878;28;20033;-66
2022/01/04 12:43:47;;;;;;;1.45;0.93;;;11.20;99.90;;;;;;4994349;28;20033;-65
2022/01/04 12:46:14;;;;;;;1.83;1.23;;;11.20;99.90;;;;;;4994786;28;20026;-66
2022/01/04 12:48:47;;;;;;;2.53;1.48;;;11.20;99.90;;;;;;5011450;28;20092;-64
2022/01/04 12:51:38;;;;;;;1.40;1.08;;;11.20;99.90;;;;;;4994266;28;20040;-67
2022/01/04 12:54:10;;;;;;;1.30;1.20;;;11.20;99.90;;;;;;4975510;28;20026;-65
2022/01/04 12:56:40;;;;;;;;;;;11.20;99.90;;;;;;4977899;28;20030;-64
2022/01/04 12:59:05;;;;;;;1.85;1.33;;;11.20;99.90;;;;;;4990376;28;19917;-66
2022/01/04 13:01:32;;;;;;;2.00;1.10;;;11.20;99.90;;;;;;5004877;28;20035;-67
2022/01/04 13:04:00;;;;;;;3.47;1.30;;;11.10;99.90;;;;;;4994623;28;20421;-64
2022/01/04 13:06:27;;;;;;;1.80;1.27;;;11.10;99.90;;;;;;4994533;28;20331;-68